createdAt,value
2022-10-04T00:02:13.669Z,99187.50
2022-10-04T00:04:45.982Z,99181.31
2022-10-04T00:07:12.312Z,99185.06
2022-10-04T00:09:54.914Z,99185.56
2022-10-04T00:12:27.013Z,99176.97
2022-10-04T00:14:55.234Z,99172.69
2022-10-04T00:17:24.567Z,99167.38
2022-10-04T00:19:52.077Z,99182.56
2022-10-04T00:22:32.120Z,99174.78
2022-10-04T00:25:07.678Z,99169.16
2022-10-04T00:27:35.178Z,99171.25
2022-10-04T00:30:01.493Z,99161.38
2022-10-04T00:32:43.072Z,99160.81
2022-10-04T00:35:24.586Z,99173.59
2022-10-04T00:37:56.505Z,99157.03
2022-10-04T00:40:22.955Z,99152.84
2022-10-04T00:42:56.304Z,99151.69
2022-10-04T00:45:28.623Z,99160.34
2022-10-04T00:47:57.106Z,99161.63
2022-10-04T00:50:41.897Z,99153.63
2022-10-04T00:53:35.508Z,99141.91
2022-10-04T00:56:03.374Z,99149.91
2022-10-04T00:58:33.807Z,99156.31
2022-10-04T01:01:00.415Z,99152.59
2022-10-04T01:03:30.555Z,99152.03
2022-10-04T01:06:01.359Z,99157.91
2022-10-04T01:08:31.243Z,99161.63
2022-10-04T01:11:10.304Z,99152.03
2022-10-04T01:13:40.387Z,99142.44
2022-10-04T01:16:14.638Z,99134.66
2022-10-04T01:18:41.114Z,99125.28
2022-10-04T01:21:09.718Z,99132.25
2022-10-04T01:23:43.411Z,99122.38
2022-10-04T01:26:34.447Z,99119.16
2022-10-04T01:29:09.242Z,99106.88
2022-10-04T01:31:56.323Z,99106.88
2022-10-04T01:34:24.747Z,99099.78
2022-10-04T01:36:52.791Z,99104.84
2022-10-04T01:39:20.373Z,99113.66
2022-10-04T01:42:01.662Z,99118.50
2022-10-04T01:44:37.050Z,99112.19
2022-10-04T01:47:06.337Z,99117.84
2022-10-04T01:49:34.273Z,99101.59
2022-10-04T01:52:07.592Z,99096.25
2022-10-04T01:54:40.617Z,99102.41
2022-10-04T01:57:17.297Z,99108.47
2022-10-04T01:59:51.316Z,99100.25
2022-10-04T02:02:37.332Z,99100.25
2022-10-04T02:05:06.007Z,99094.34
2022-10-04T02:07:32.767Z,99091.94
2022-10-04T02:10:01.846Z,99092.97
2022-10-04T02:12:28.514Z,99081.47
2022-10-04T02:14:55.731Z,99084.41
2022-10-04T02:17:24.203Z,99078.00
2022-10-04T02:19:51.094Z,99077.22
2022-10-04T02:22:17.548Z,99077.22
2022-10-04T02:24:45.373Z,99081.47
2022-10-04T02:27:12.259Z,99080.94
2022-10-04T02:29:38.718Z,99077.47
2022-10-04T02:32:24.526Z,99081.75
2022-10-04T02:34:51.016Z,99071.06
2022-10-04T02:37:18.321Z,99066.56
2022-10-04T02:39:47.806Z,99066.56
2022-10-04T02:42:26.373Z,99070.03
2022-10-04T02:44:59.461Z,99069.72
2022-10-04T02:47:29.589Z,99068.72
2022-10-04T02:50:13.984Z,99061.53
2022-10-04T02:52:43.525Z,99064.53
2022-10-04T02:55:39.072Z,99063.72
2022-10-04T02:58:09.769Z,99062.03
2022-10-04T03:00:45.379Z,99060.16
2022-10-04T03:03:27.779Z,99062.81
2022-10-04T03:05:58.506Z,99054.81
2022-10-04T03:08:25.934Z,99055.09
2022-10-04T03:10:52.765Z,99049.50
2022-10-04T03:13:19.523Z,99045.22
2022-10-04T03:15:46.454Z,99054.81
2022-10-04T03:18:14.299Z,99040.16
2022-10-04T03:20:40.759Z,99044.09
2022-10-04T03:23:07.204Z,99036.63
2022-10-04T03:25:55.368Z,99037.91
2022-10-04T03:28:21.902Z,99037.09
2022-10-04T03:30:49.357Z,99038.16
2022-10-04T03:33:25.617Z,99034.34
2022-10-04T03:35:54.207Z,99038.41
2022-10-04T03:38:21.056Z,99041.63
2022-10-04T03:40:51.608Z,99038.16
2022-10-04T03:43:18.134Z,99034.69
2022-10-04T03:45:44.740Z,99035.47
2022-10-04T03:48:13.319Z,99031.03
2022-10-04T03:50:46.833Z,99028.69
2022-10-04T03:53:37.229Z,99035.38
2022-10-04T03:56:09.712Z,99027.44
2022-10-04T03:58:36.479Z,99022.34
2022-10-04T04:01:14.658Z,99025.59
2022-10-04T04:03:53.465Z,99016.22
2022-10-04T04:06:20.290Z,99017.28
2022-10-04T04:08:48.719Z,99010.63
2022-10-04T04:11:25.780Z,99011.69
2022-10-04T04:14:04.143Z,99006.03
2022-10-04T04:16:31.417Z,99011.16
2022-10-04T04:19:00.005Z,99007.91
2022-10-04T04:21:26.463Z,99015.91
2022-10-04T04:23:58.698Z,99008.72
2022-10-04T04:26:40.976Z,99014.03
2022-10-04T04:29:44.510Z,99012.44
2022-10-04T04:32:40.195Z,99012.94
2022-10-04T04:35:08.337Z,99006.78
2022-10-04T04:37:35.555Z,99013.16
2022-10-04T04:40:31.470Z,99004.63
2022-10-04T04:42:59.270Z,99005.69
2022-10-04T04:45:29.524Z,99008.84
2022-10-04T04:47:58.841Z,98990.97
2022-10-04T04:50:27.948Z,98998.44
2022-10-04T04:52:55.964Z,99000.03
2022-10-04T04:55:44.474Z,99001.09
2022-10-04T04:58:21.365Z,99003.97
2022-10-04T05:00:57.013Z,99003.19
2022-10-04T05:03:24.039Z,99002.06
2022-10-04T05:05:51.766Z,98996.19
2022-10-04T05:08:21.978Z,99001.50
2022-10-04T05:10:57.776Z,99005.78
2022-10-04T05:13:31.943Z,99001.00
2022-10-04T05:15:58.466Z,98999.97
2022-10-04T05:18:29.025Z,99007.97
2022-10-04T05:20:56.341Z,99014.09
2022-10-04T05:23:22.821Z,99015.22
2022-10-04T05:25:49.703Z,99019.00
2022-10-04T05:28:17.043Z,99024.88
2022-10-04T05:31:03.458Z,99024.63
2022-10-04T05:33:59.193Z,99021.41
2022-10-04T05:36:44.488Z,99011.31
2022-10-04T05:39:27.723Z,99008.91
2022-10-04T05:41:58.194Z,99000.91
2022-10-04T05:44:35.126Z,99009.16
2022-10-04T05:47:02.382Z,99009.97
2022-10-04T05:49:33.274Z,98997.13
2022-10-04T05:52:03.712Z,99003.81
2022-10-04T05:54:32.794Z,99007.53
2022-10-04T05:57:09.614Z,99003.50
2022-10-04T06:00:13.667Z,99013.38
2022-10-04T06:02:58.729Z,99014.16
2022-10-04T06:05:28.868Z,99014.16
2022-10-04T06:08:01.989Z,99017.09
2022-10-04T06:10:34.537Z,99028.53
2022-10-04T06:13:15.098Z,99022.97
2022-10-04T06:16:01.706Z,99030.47
2022-10-04T06:18:33.793Z,99034.16
2022-10-04T06:21:24.576Z,99041.13
2022-10-04T06:23:55.523Z,99040.91
2022-10-04T06:26:25.550Z,99040.72
2022-10-04T06:29:00.529Z,99039.38
2022-10-04T06:31:57.390Z,99045.19
2022-10-04T06:34:51.872Z,99053.72
2022-10-04T06:37:46.882Z,99053.00
2022-10-04T06:40:47.236Z,99054.56
2022-10-04T06:43:16.486Z,99045.34
2022-10-04T06:46:15.656Z,99039.13
2022-10-04T06:49:19.923Z,99034.63
2022-10-04T06:52:34.535Z,99035.97
2022-10-04T06:55:33.208Z,99036.63
2022-10-04T06:58:18.437Z,99030.75
2022-10-04T07:00:59.046Z,99027.09
2022-10-04T07:03:39.735Z,99016.44
2022-10-04T07:06:07.362Z,99019.25
2022-10-04T07:08:44.710Z,99020.09
2022-10-04T07:11:15.312Z,99018.88
2022-10-04T07:13:47.946Z,99019.25
2022-10-04T07:16:44.969Z,99018.78
2022-10-04T07:19:20.414Z,99018.13
2022-10-04T07:22:08.692Z,99017.59
2022-10-04T07:24:59.960Z,99022.91
2022-10-04T07:27:32.813Z,99012.72
2022-10-04T07:30:00.473Z,99017.81
2022-10-04T07:32:28.591Z,99021.06
2022-10-04T07:35:10.368Z,99023.72
2022-10-04T07:37:49.770Z,99023.72
2022-10-04T07:40:31.684Z,99023.47
2022-10-04T07:43:00.578Z,99030.16
2022-10-04T07:45:39.783Z,99036.31
2022-10-04T07:48:09.160Z,99035.50
2022-10-04T07:50:39.839Z,99035.34
2022-10-04T07:53:13.166Z,99042.03
2022-10-04T07:56:01.043Z,99045.03
2022-10-04T07:58:44.696Z,99041.69
2022-10-04T08:01:39.808Z,99045.50
2022-10-04T08:04:11.480Z,99042.28
2022-10-04T08:06:57.952Z,99047.59
2022-10-04T08:09:38.155Z,99033.50
2022-10-04T08:12:29.628Z,99028.47
2022-10-04T08:15:26.824Z,99024.03
2022-10-04T08:17:57.867Z,99021.44
2022-10-04T08:20:27.318Z,99020.25
2022-10-04T08:23:05.868Z,99021.69
2022-10-04T08:25:42.435Z,99018.84
2022-10-04T08:28:43.692Z,99024.50
2022-10-04T08:31:13.149Z,99016.63
2022-10-04T08:34:08.590Z,99019.34
2022-10-04T08:36:53.333Z,99026.91
2022-10-04T08:39:35.331Z,99021.41
2022-10-04T08:42:04.965Z,99026.50
2022-10-04T08:44:31.432Z,99030.47
2022-10-04T08:47:22.131Z,99032.97
2022-10-04T08:49:58.899Z,99021.06
2022-10-04T08:52:50.369Z,99021.50
2022-10-04T08:55:54.166Z,99021.50
2022-10-04T08:58:45.428Z,99018.41
2022-10-04T09:01:28.069Z,99024.03
2022-10-04T09:04:12.604Z,99022.28
2022-10-04T09:06:50.910Z,99013.25
2022-10-04T09:09:44.468Z,99020.50
2022-10-04T09:12:22.947Z,99013.31
2022-10-04T09:15:07.760Z,99021.72
2022-10-04T09:17:52.427Z,99017.22
2022-10-04T09:20:38.629Z,99020.59
2022-10-04T09:23:22.086Z,99018.03
2022-10-04T09:26:27.327Z,99015.41
2022-10-04T09:29:12.405Z,99015.78
2022-10-04T09:32:16.721Z,99018.44
2022-10-04T09:35:06.371Z,99012.84
2022-10-04T09:37:36.271Z,99009.44
2022-10-04T09:40:42.385Z,99011.59
2022-10-04T09:43:49.296Z,99004.94
2022-10-04T09:46:18.715Z,99005.69
2022-10-04T09:49:06.847Z,99004.19
2022-10-04T09:52:15.428Z,98999.09
2022-10-04T09:57:28.024Z,99004.94
2022-10-04T10:00:10.694Z,98999.84
2022-10-04T10:02:47.434Z,98999.91
2022-10-04T10:05:38.364Z,98994.34
2022-10-04T10:08:32.148Z,98992.56
2022-10-04T10:11:46.322Z,99000.56
2022-10-04T10:14:37.026Z,98998.16
2022-10-04T10:17:22.456Z,98988.84
2022-10-04T10:19:54.540Z,98993.44
2022-10-04T10:22:58.543Z,98985.91
2022-10-04T10:26:10.808Z,98981.66
2022-10-04T10:29:10.895Z,98971.50
2022-10-04T10:32:15.135Z,98969.97
2022-10-04T10:34:56.886Z,98967.88
2022-10-04T10:37:46.111Z,98963.03
2022-10-04T10:40:41.028Z,98954.56
2022-10-04T10:43:22.050Z,98963.09
2022-10-04T10:45:59.757Z,98960.91
2022-10-04T10:48:35.605Z,98956.94
2022-10-04T10:51:49.941Z,98950.31
2022-10-04T10:54:54.148Z,98950.84
2022-10-04T10:57:46.286Z,98951.94
2022-10-04T11:00:26.118Z,98953.50
2022-10-04T11:03:17.263Z,98946.31
2022-10-04T11:06:04.456Z,98942.06
2022-10-04T11:09:10.116Z,98934.84
2022-10-04T11:11:41.883Z,98938.06
2022-10-04T11:14:18.329Z,98927.91
2022-10-04T11:17:04.005Z,98934.06
2022-10-04T11:20:09.315Z,98924.19
2022-10-04T11:22:38.394Z,98928.41
2022-10-04T11:25:08.042Z,98929.50
2022-10-04T11:27:57.191Z,98920.38
2022-10-04T11:30:26.281Z,98933.25
2022-10-04T11:33:11.815Z,98928.97
2022-10-04T11:35:59.592Z,98936.97
2022-10-04T11:38:29.046Z,98935.63
2022-10-04T11:41:26.153Z,98938.28
2022-10-04T11:44:00.395Z,98930.53
2022-10-04T11:46:36.042Z,98926.50
2022-10-04T11:49:47.178Z,98924.94
2022-10-04T11:52:32.203Z,98922.81
2022-10-04T11:55:32.121Z,98918.81
2022-10-04T11:58:11.999Z,98914.28
2022-10-04T12:01:16.302Z,98918.56
2022-10-04T12:03:55.090Z,98908.94
2022-10-04T12:06:35.649Z,98911.34
2022-10-04T12:09:26.066Z,98910.22
2022-10-04T12:12:37.657Z,98900.84
2022-10-04T12:15:08.479Z,98899.25
2022-10-04T12:18:12.661Z,98895.53
2022-10-04T12:20:40.054Z,98887.22
2022-10-04T12:23:21.816Z,98891.00
2022-10-04T12:26:09.655Z,98886.22
2022-10-04T12:28:44.938Z,98879.81
2022-10-04T12:31:16.415Z,98876.84
2022-10-04T12:34:07.578Z,98867.50
2022-10-04T12:36:41.309Z,98864.81
2022-10-04T12:39:22.212Z,98860.53
2022-10-04T12:42:10.891Z,98859.94
2022-10-04T12:44:52.991Z,98865.81
2022-10-04T12:47:50.530Z,98850.31
2022-10-04T12:50:20.746Z,98843.63
2022-10-04T12:52:57.254Z,98840.66
2022-10-04T12:55:55.270Z,98837.97
2022-10-04T12:58:30.350Z,98835.28
2022-10-04T13:01:02.439Z,98840.13
2022-10-04T13:03:50.454Z,98839.81
2022-10-04T13:06:47.124Z,98836.06
2022-10-04T13:09:23.445Z,98831.38
2022-10-04T13:12:08.567Z,98834.66
2022-10-04T13:14:50.632Z,98837.06
2022-10-04T13:17:49.388Z,98831.72
2022-10-04T13:20:24.613Z,98833.63
2022-10-04T13:23:00.098Z,98835.75
2022-10-04T13:25:41.998Z,98831.50
2022-10-04T13:28:21.375Z,98825.88
2022-10-04T13:31:09.932Z,98824.25
2022-10-04T13:33:46.170Z,98813.84
2022-10-04T13:36:46.738Z,98802.63
2022-10-04T13:39:31.657Z,98798.88
2022-10-04T13:42:19.318Z,98802.34
2022-10-04T13:45:10.388Z,98807.19
2022-10-04T13:48:18.173Z,98816.81
2022-10-04T13:51:11.529Z,98806.91
2022-10-04T13:54:46.644Z,98806.09
2022-10-04T13:57:22.185Z,98799.16
2022-10-04T14:00:01.848Z,98794.63
2022-10-04T14:03:01.040Z,98799.09
2022-10-04T14:05:27.559Z,98792.44
2022-10-04T14:08:12.036Z,98790.56
2022-10-04T14:11:07.739Z,98785.25
2022-10-04T14:13:53.741Z,98787.63
2022-10-04T14:16:45.083Z,98786.53
2022-10-04T14:19:42.450Z,98781.69
2022-10-04T14:22:28.481Z,98780.59
2022-10-04T14:25:23.309Z,98771.00
2022-10-04T14:28:27.550Z,98777.66
2022-10-04T14:31:20.001Z,98768.31
2022-10-04T14:33:47.293Z,98767.53
2022-10-04T14:36:25.786Z,98770.94
2022-10-04T14:38:58.148Z,98767.22
2022-10-04T14:41:33.105Z,98761.88
2022-10-04T14:44:27.681Z,98756.22
2022-10-04T14:47:20.410Z,98746.84
2022-10-04T14:50:00.705Z,98761.50
2022-10-04T14:52:32.384Z,98773.47
2022-10-04T14:55:03.830Z,98769.19
2022-10-04T14:57:42.226Z,98765.19
2022-10-04T15:00:20.384Z,98767.56
2022-10-04T15:03:07.850Z,98755.47
2022-10-04T15:05:34.178Z,98758.94
2022-10-04T15:08:21.904Z,98766.69
2022-10-04T15:10:49.432Z,98771.19
2022-10-04T15:13:55.549Z,98769.59
2022-10-04T15:16:44.411Z,98769.53
2022-10-04T15:19:20.698Z,98770.38
2022-10-04T15:21:47.092Z,98763.75
2022-10-04T15:24:16.459Z,98774.72
2022-10-04T15:26:46.169Z,98768.31
2022-10-04T15:29:31.849Z,98764.28
2022-10-04T15:32:20.132Z,98756.56
2022-10-04T15:35:15.857Z,98760.59
2022-10-04T15:38:27.704Z,98736.59
2022-10-04T15:41:01.917Z,98730.16
2022-10-04T15:43:50.090Z,98726.69
2022-10-04T15:46:44.765Z,98730.66
2022-10-04T15:49:59.804Z,98734.13
2022-10-04T15:52:44.392Z,98740.81
2022-10-04T15:55:25.683Z,98734.38
2022-10-04T15:58:22.610Z,98737.59
2022-10-04T16:01:17.765Z,98735.72
2022-10-04T16:04:09.931Z,98748.50
2022-10-04T16:06:46.995Z,98749.31
2022-10-04T16:09:39.408Z,98742.13
2022-10-04T16:12:25.793Z,98743.47
2022-10-04T16:14:56.322Z,98752.28
2022-10-04T16:17:44.288Z,98755.75
2022-10-04T16:20:27.984Z,98745.91
2022-10-04T16:23:26.657Z,98758.94
2022-10-04T16:26:01.969Z,98756.56
2022-10-04T16:28:39.326Z,98753.09
2022-10-04T16:31:24.942Z,98739.47
2022-10-04T16:33:56.095Z,98746.19
2022-10-04T16:36:23.920Z,98738.72
2022-10-04T16:39:11.785Z,98748.88
2022-10-04T16:41:58.515Z,98748.13
2022-10-04T16:44:38.272Z,98746.25
2022-10-04T16:47:52.796Z,98746.53
2022-10-04T16:50:43.900Z,98746.25
2022-10-04T16:53:48.831Z,98750.22
2022-10-04T16:56:16.415Z,98762.75
2022-10-04T16:59:05.159Z,98764.66
2022-10-04T17:02:00.559Z,98767.59
2022-10-04T17:04:36.025Z,98753.16
2022-10-04T17:07:24.283Z,98753.41
2022-10-04T17:10:20.313Z,98752.63
2022-10-04T17:13:08.580Z,98749.91
2022-10-04T17:15:47.139Z,98750.94
2022-10-04T17:18:30.153Z,98750.94
2022-10-04T17:21:01.766Z,98748.06
2022-10-04T17:23:41.041Z,98745.13
2022-10-04T17:26:13.135Z,98751.25
2022-10-04T17:29:04.120Z,98741.34
2022-10-04T17:31:41.145Z,98748.84
2022-10-04T17:34:37.038Z,98740.63
2022-10-04T17:37:11.269Z,98756.00
2022-10-04T17:39:48.129Z,98757.72
2022-10-04T17:42:29.925Z,98759.91
2022-10-04T17:45:38.960Z,98757.78
2022-10-04T17:48:23.976Z,98751.38
2022-10-04T17:51:21.857Z,98762.06
2022-10-04T17:54:10.613Z,98754.09
2022-10-04T17:56:43.032Z,98754.34
2022-10-04T17:59:12.942Z,98747.72
2022-10-04T18:01:47.518Z,98750.13
2022-10-04T18:04:17.202Z,98761.09
2022-10-04T18:06:44.022Z,98744.28
2022-10-04T18:09:19.349Z,98754.41
2022-10-04T18:12:12.960Z,98752.53
2022-10-04T18:15:22.692Z,98752.03
2022-10-04T18:17:49.243Z,98754.69
2022-10-04T18:20:32.080Z,98750.41
2022-10-04T18:23:06.401Z,98756.81
2022-10-04T18:25:33.867Z,98756.22
2022-10-04T18:28:07.324Z,98769.28
2022-10-04T18:30:45.870Z,98762.91
2022-10-04T18:33:16.289Z,98767.97
2022-10-04T18:36:05.217Z,98766.09
2022-10-04T18:38:33.869Z,98765.00
2022-10-04T18:41:15.837Z,98758.88
2022-10-04T18:43:59.286Z,98758.34
2022-10-04T18:46:25.869Z,98763.63
2022-10-04T18:49:18.180Z,98760.72
2022-10-04T18:52:02.947Z,98756.97
2022-10-04T18:55:06.798Z,98768.41
2022-10-04T18:58:00.059Z,98759.59
2022-10-04T19:00:49.324Z,98764.38
2022-10-04T19:03:53.333Z,98772.38
2022-10-04T19:06:26.770Z,98777.44
2022-10-04T19:09:11.500Z,98776.09
2022-10-04T19:12:07.350Z,98770.75
2022-10-04T19:14:53.619Z,98767.28
2022-10-04T19:17:32.230Z,98770.44
2022-10-04T19:20:19.259Z,98772.31
2022-10-04T19:23:07.160Z,98773.69
2022-10-04T19:25:39.158Z,98769.50
2022-10-04T19:28:12.891Z,98764.22
2022-10-04T19:30:57.642Z,98767.97
2022-10-04T19:33:30.047Z,98770.66
2022-10-04T19:36:13.078Z,98772.81
2022-10-04T19:39:01.415Z,98779.47
2022-10-04T19:41:48.086Z,98782.94
2022-10-04T19:44:44.010Z,98784.78
2022-10-04T19:47:40.983Z,98782.91
2022-10-04T19:50:31.284Z,98790.38
2022-10-04T19:53:03.708Z,98784.47
2022-10-04T19:55:59.549Z,98781.31
2022-10-04T19:58:42.109Z,98782.59
2022-10-04T20:01:13.611Z,98779.38
2022-10-04T20:03:40.229Z,98786.81
2022-10-04T20:06:07.463Z,98786.31
2022-10-04T20:11:28.635Z,98767.38
2022-10-04T20:14:07.247Z,98757.75
2022-10-04T20:17:02.583Z,98763.38
2022-10-04T20:19:28.900Z,98763.38
2022-10-04T20:21:56.201Z,98752.69
2022-10-04T20:24:37.938Z,98754.00
2022-10-04T20:27:22.909Z,98757.72
2022-10-04T20:29:49.268Z,98750.00
2022-10-04T20:32:33.962Z,98751.03
2022-10-04T20:39:07.741Z,98751.56
2022-10-04T20:41:52.833Z,98745.44
2022-10-04T20:44:54.451Z,98737.66
2022-10-04T20:47:40.214Z,98739.00
2022-10-04T20:50:09.573Z,98730.19
2022-10-04T20:52:36.381Z,98733.09
2022-10-04T20:55:03.138Z,98744.56
2022-10-04T20:57:30.187Z,98737.91
2022-10-04T20:59:57.589Z,98746.44
2022-10-04T21:02:27.300Z,98753.41
2022-10-04T21:04:54.081Z,98754.75
2022-10-04T21:07:21.906Z,98746.72
2022-10-04T21:09:48.455Z,98752.09
2022-10-04T21:12:40.079Z,98753.69
2022-10-04T21:15:15.690Z,98752.09
2022-10-04T21:17:42.359Z,98748.63
2022-10-04T21:20:35.534Z,98742.50
2022-10-04T21:23:16.903Z,98738.72
2022-10-04T21:25:43.350Z,98737.94
2022-10-04T21:28:29.759Z,98735.53
2022-10-04T21:30:56.409Z,98726.16
2022-10-04T21:33:22.897Z,98725.34
2022-10-04T21:35:51.339Z,98722.97
2022-10-04T21:38:18.312Z,98722.72
2022-10-04T21:40:44.856Z,98716.56
2022-10-04T21:43:11.362Z,98716.81
2022-10-04T21:45:37.842Z,98723.19
2022-10-04T21:48:04.319Z,98720.53
2022-10-04T21:50:30.794Z,98716.25
2022-10-04T21:52:57.425Z,98706.66
2022-10-04T21:55:23.888Z,98705.84
2022-10-04T21:57:50.357Z,98702.63
2022-10-04T22:00:17.081Z,98697.28
2022-10-04T22:02:43.600Z,98705.81
2022-10-04T22:05:10.121Z,98700.72
2022-10-04T22:07:36.600Z,98698.06
2022-10-04T22:10:03.089Z,98699.41
2022-10-04T22:12:29.587Z,98704.16
2022-10-04T22:14:56.031Z,98709.50
2022-10-04T22:17:22.498Z,98710.56
2022-10-04T22:19:49.856Z,98717.78
2022-10-04T22:22:16.986Z,98712.09
2022-10-04T22:24:43.478Z,98711.31
2022-10-04T22:27:16.723Z,98714.25
2022-10-04T22:29:43.247Z,98713.44
2022-10-04T22:32:22.532Z,98711.53
2022-10-04T22:34:49.017Z,98719.28
2022-10-04T22:37:15.483Z,98709.94
2022-10-04T22:39:41.956Z,98714.44
2022-10-04T22:42:11.372Z,98712.84
2022-10-04T22:44:38.162Z,98709.91
2022-10-04T22:47:06.784Z,98716.28
2022-10-04T22:49:35.057Z,98723.75
2022-10-04T22:52:03.304Z,98728.50
2022-10-04T22:54:33.784Z,98720.25
2022-10-04T22:57:00.266Z,98729.03
2022-10-04T22:59:40.781Z,98740.78
2022-10-04T23:02:12.800Z,98749.28
2022-10-04T23:04:39.320Z,98746.59
2022-10-04T23:07:05.793Z,98731.63
2022-10-04T23:09:32.261Z,98726.31
2022-10-04T23:11:58.778Z,98724.44
2022-10-04T23:14:25.383Z,98727.09
2022-10-04T23:16:51.873Z,98717.75
2022-10-04T23:19:19.991Z,98707.06
2022-10-04T23:21:48.075Z,98705.22
2022-10-04T23:24:23.466Z,98703.59
2022-10-04T23:26:57.114Z,98713.22
2022-10-04T23:29:26.131Z,98703.88
2022-10-04T23:31:52.813Z,98693.22
2022-10-04T23:34:22.901Z,98693.22
2022-10-04T23:36:49.674Z,98689.19
2022-10-04T23:39:24.583Z,98695.31
2022-10-04T23:41:51.981Z,98697.19
2022-10-04T23:44:18.442Z,98705.44
2022-10-04T23:46:45.256Z,98711.84
2022-10-04T23:49:15.868Z,98710.19
2022-10-04T23:51:42.987Z,98705.94
2022-10-04T23:54:16.033Z,98711.53
2022-10-04T23:56:43.021Z,98712.59
2022-10-04T23:59:14.634Z,98711.22
